createdAt,value
2022-10-19T00:01:30.382Z,3.50
2022-10-19T00:03:57.432Z,3.70
2022-10-19T00:06:33.877Z,3.72
2022-10-19T00:09:04.341Z,3.15
2022-10-19T00:11:32.973Z,3.45
2022-10-19T00:14:01.441Z,2.97
2022-10-19T00:16:31.946Z,3.03
2022-10-19T00:19:00.713Z,3.85
2022-10-19T00:21:28.399Z,3.10
2022-10-19T00:23:55.840Z,3.35
2022-10-19T00:26:22.976Z,3.42
2022-10-19T00:28:49.884Z,3.47
2022-10-19T00:31:18.444Z,3.28
2022-10-19T00:33:47.206Z,3.45
2022-10-19T00:36:25.109Z,3.40
2022-10-19T00:38:53.031Z,3.90
2022-10-19T00:41:21.616Z,3.60
2022-10-19T00:43:53.521Z,3.50
2022-10-19T00:46:20.973Z,3.35
2022-10-19T00:51:16.077Z,3.65
2022-10-19T00:53:43.228Z,3.90
2022-10-19T00:56:13.519Z,3.25
2022-10-19T00:58:43.208Z,4.20
2022-10-19T01:01:14.882Z,3.10
2022-10-19T01:03:41.972Z,3.85
2022-10-19T01:06:10.211Z,3.42
2022-10-19T01:08:37.049Z,3.42
2022-10-19T01:11:14.337Z,3.80
2022-10-19T01:14:07.846Z,3.70
2022-10-19T01:16:46.300Z,3.65
2022-10-19T01:20:00.316Z,4.05
2022-10-19T01:22:49.309Z,3.97
2022-10-19T01:25:40.549Z,3.42
2022-10-19T01:28:41.782Z,4.07
2022-10-19T01:31:25.172Z,4.20
2022-10-19T01:34:14.894Z,3.72
2022-10-19T01:36:43.458Z,4.88
2022-10-19T01:39:20.913Z,4.32
2022-10-19T01:42:03.224Z,4.70
2022-10-19T01:44:50.033Z,4.13
2022-10-19T01:47:47.832Z,5.50
2022-10-19T01:50:33.723Z,4.30
2022-10-19T01:53:00.795Z,5.38
2022-10-19T01:55:28.939Z,5.22
2022-10-19T01:58:08.237Z,4.57
2022-10-19T02:00:40.003Z,5.15
2022-10-19T02:03:09.130Z,4.88
2022-10-19T02:05:38.714Z,5.07
2022-10-19T02:08:13.644Z,5.13
2022-10-19T02:10:43.541Z,6.00
2022-10-19T02:13:13.341Z,5.00
2022-10-19T02:15:44.123Z,5.72
2022-10-19T02:18:15.585Z,5.00
2022-10-19T02:20:42.501Z,4.90
2022-10-19T02:23:10.085Z,5.38
2022-10-19T02:25:37.404Z,5.85
2022-10-19T02:28:04.957Z,6.47
2022-10-19T02:30:32.029Z,5.53
2022-10-19T02:32:59.193Z,5.90
2022-10-19T02:35:27.240Z,5.15
2022-10-19T02:37:55.933Z,6.53
2022-10-19T02:40:23.921Z,5.28
2022-10-19T02:42:57.896Z,5.97
2022-10-19T02:45:31.976Z,5.90
2022-10-19T02:48:04.966Z,5.75
2022-10-19T02:50:32.273Z,5.60
2022-10-19T02:52:59.882Z,5.93
2022-10-19T02:55:26.801Z,5.70
2022-10-19T02:57:53.895Z,5.57
2022-10-19T03:00:21.135Z,6.10
2022-10-19T03:02:48.508Z,4.85
2022-10-19T03:05:15.559Z,5.97
2022-10-19T03:07:43.058Z,4.82
2022-10-19T03:10:10.314Z,5.30
2022-10-19T03:12:37.345Z,4.88
2022-10-19T03:15:04.835Z,4.78
2022-10-19T03:17:32.248Z,4.60
2022-10-19T03:19:59.477Z,4.93
2022-10-19T03:22:26.361Z,4.60
2022-10-19T03:24:53.551Z,4.40
2022-10-19T03:27:20.531Z,4.80
2022-10-19T03:29:47.523Z,4.97
2022-10-19T03:32:14.531Z,5.32
2022-10-19T03:34:41.624Z,5.03
2022-10-19T03:37:08.697Z,5.28
2022-10-19T03:39:35.723Z,4.38
2022-10-19T03:42:02.675Z,5.10
2022-10-19T03:44:29.496Z,4.57
2022-10-19T03:46:56.283Z,5.38
2022-10-19T03:49:23.228Z,5.63
2022-10-19T03:51:50.023Z,5.43
2022-10-19T03:54:17.815Z,5.75
2022-10-19T03:56:45.092Z,4.88
2022-10-19T03:59:15.202Z,5.15
2022-10-19T04:01:45.272Z,4.95
2022-10-19T04:04:16.253Z,4.85
2022-10-19T04:06:44.802Z,5.35
2022-10-19T04:09:14.462Z,5.60
2022-10-19T04:11:42.060Z,6.38
2022-10-19T04:14:19.096Z,5.22
2022-10-19T04:16:54.150Z,6.70
2022-10-19T04:19:21.141Z,5.82
2022-10-19T04:21:49.200Z,6.03
2022-10-19T04:24:18.507Z,5.80
2022-10-19T04:26:51.010Z,6.13
2022-10-19T04:29:20.227Z,6.18
2022-10-19T04:31:49.962Z,6.40
2022-10-19T04:34:17.580Z,6.45
2022-10-19T04:36:45.051Z,26.20
2022-10-19T04:39:11.990Z,8.73
2022-10-19T04:41:38.970Z,6.60
2022-10-19T04:44:06.812Z,6.90
2022-10-19T04:46:34.305Z,7.07
2022-10-19T04:49:01.587Z,6.53
2022-10-19T04:51:28.906Z,7.07
2022-10-19T04:53:59.605Z,6.72
2022-10-19T04:56:27.774Z,6.65
2022-10-19T04:58:56.980Z,6.53
2022-10-19T05:01:25.186Z,7.07
2022-10-19T05:06:24.887Z,6.38
2022-10-19T05:08:52.250Z,7.35
2022-10-19T05:11:19.828Z,6.57
2022-10-19T05:13:48.358Z,7.20
2022-10-19T05:16:21.325Z,6.85
2022-10-19T05:18:56.156Z,7.00
2022-10-19T05:21:23.245Z,6.85
2022-10-19T05:23:54.566Z,7.22
2022-10-19T05:26:27.577Z,7.15
2022-10-19T05:28:57.289Z,6.75
2022-10-19T05:31:27.288Z,6.93
2022-10-19T05:33:56.361Z,6.95
2022-10-19T05:36:26.861Z,7.50
2022-10-19T05:38:56.445Z,7.75
2022-10-19T05:41:24.859Z,7.40
2022-10-19T05:43:58.369Z,7.03
2022-10-19T05:46:26.773Z,7.68
2022-10-19T05:48:55.029Z,7.10
2022-10-19T05:51:23.095Z,7.55
2022-10-19T05:53:50.587Z,7.65
2022-10-19T05:56:22.892Z,7.25
2022-10-19T05:58:50.342Z,7.75
2022-10-19T06:01:19.514Z,7.22
2022-10-19T06:03:47.405Z,7.97
2022-10-19T06:06:14.601Z,7.85
2022-10-19T06:08:41.480Z,8.65
2022-10-19T06:11:16.943Z,8.00
2022-10-19T06:13:45.626Z,8.43
2022-10-19T06:16:14.642Z,8.55
2022-10-19T06:18:42.959Z,8.15
2022-10-19T06:21:29.700Z,8.80
2022-10-19T06:23:59.085Z,8.18
2022-10-19T06:26:26.985Z,8.35
2022-10-19T06:29:00.614Z,8.38
2022-10-19T06:31:33.239Z,8.68
2022-10-19T06:34:00.564Z,9.23
2022-10-19T06:36:29.935Z,9.82
2022-10-19T06:38:57.299Z,9.38
2022-10-19T06:41:24.550Z,9.75
2022-10-19T06:43:52.843Z,9.13
2022-10-19T06:46:23.220Z,9.50
2022-10-19T06:49:01.369Z,10.23
2022-10-19T06:51:30.342Z,9.38
2022-10-19T06:53:57.694Z,9.65
2022-10-19T06:56:26.803Z,9.23
2022-10-19T06:58:54.369Z,10.05
2022-10-19T07:01:23.135Z,10.13
2022-10-19T07:03:53.593Z,10.05
2022-10-19T07:06:21.588Z,9.48
2022-10-19T07:08:48.991Z,9.98
2022-10-19T07:11:18.710Z,9.90
2022-10-19T07:13:45.604Z,9.48
2022-10-19T07:16:17.994Z,9.27
2022-10-19T07:18:49.467Z,10.35
2022-10-19T07:21:17.168Z,10.63
2022-10-19T07:23:45.600Z,10.43
2022-10-19T07:26:23.772Z,10.32
2022-10-19T07:28:51.566Z,9.50
2022-10-19T07:31:21.094Z,9.85
2022-10-19T07:33:59.079Z,9.73
2022-10-19T07:36:26.915Z,9.80
2022-10-19T07:38:54.156Z,9.95
2022-10-19T07:41:23.443Z,9.63
2022-10-19T07:43:51.032Z,10.23
2022-10-19T07:46:25.426Z,10.38
2022-10-19T07:48:53.536Z,10.77
2022-10-19T07:51:20.867Z,9.52
2022-10-19T07:53:48.267Z,10.20
2022-10-19T07:56:20.893Z,9.85
2022-10-19T07:58:49.371Z,9.98
2022-10-19T08:01:19.617Z,9.43
2022-10-19T08:06:38.437Z,9.25
2022-10-19T08:09:06.135Z,9.88
2022-10-19T08:11:35.157Z,10.15
2022-10-19T08:14:03.219Z,8.52
2022-10-19T08:16:40.500Z,10.30
2022-10-19T08:19:13.056Z,8.82
2022-10-19T08:21:41.847Z,9.25
2022-10-19T08:24:10.165Z,9.75
2022-10-19T08:26:38.959Z,8.88
2022-10-19T08:29:12.294Z,9.45
2022-10-19T08:31:39.526Z,9.00
2022-10-19T08:34:07.282Z,9.10
2022-10-19T08:36:35.685Z,9.52
2022-10-19T08:39:05.459Z,9.55
2022-10-19T08:41:53.705Z,9.50
2022-10-19T08:44:30.330Z,8.65
2022-10-19T08:46:57.394Z,9.00
2022-10-19T08:49:27.008Z,8.52
2022-10-19T08:52:01.406Z,8.57
2022-10-19T08:54:54.413Z,9.40
2022-10-19T08:57:36.729Z,8.52
2022-10-19T09:00:13.585Z,8.95
2022-10-19T09:03:09.511Z,8.48
2022-10-19T09:05:57.938Z,9.80
2022-10-19T09:08:25.290Z,9.18
2022-10-19T09:10:54.414Z,8.48
2022-10-19T09:14:04.703Z,9.50
2022-10-19T09:16:35.077Z,9.50
2022-10-19T09:19:03.877Z,9.52
2022-10-19T09:21:47.310Z,9.55
2022-10-19T09:24:54.997Z,9.25
2022-10-19T09:27:26.710Z,10.27
2022-10-19T09:29:58.868Z,9.43
2022-10-19T09:32:39.821Z,10.52
2022-10-19T09:35:29.140Z,9.50
2022-10-19T09:37:57.476Z,9.65
2022-10-19T09:40:27.397Z,10.63
2022-10-19T09:42:58.587Z,10.23
2022-10-19T09:45:56.192Z,9.82
2022-10-19T09:48:49.158Z,11.00
2022-10-19T09:51:17.967Z,9.63
2022-10-19T09:53:55.756Z,9.50
2022-10-19T09:56:25.531Z,9.82
2022-10-19T09:58:57.580Z,10.18
2022-10-19T10:01:41.865Z,10.30
2022-10-19T10:04:16.216Z,9.98
2022-10-19T10:06:45.093Z,10.05
2022-10-19T10:09:22.293Z,9.82
2022-10-19T10:11:51.033Z,10.57
2022-10-19T10:14:23.359Z,10.35
2022-10-19T10:17:02.441Z,9.65
2022-10-19T10:19:31.403Z,10.55
2022-10-19T10:21:59.716Z,10.90
2022-10-19T10:24:32.056Z,10.60
2022-10-19T10:27:01.693Z,11.43
2022-10-19T10:29:39.138Z,9.75
2022-10-19T10:32:12.501Z,10.00
2022-10-19T10:34:51.231Z,10.68
2022-10-19T10:37:29.668Z,9.77
2022-10-19T10:40:01.766Z,10.40
2022-10-19T10:42:43.899Z,10.30
2022-10-19T10:45:29.310Z,10.55
2022-10-19T10:47:58.250Z,11.32
2022-10-19T10:50:32.998Z,10.77
2022-10-19T10:53:04.699Z,10.75
2022-10-19T10:55:33.070Z,10.13
2022-10-19T10:58:25.508Z,10.73
2022-10-19T11:00:56.122Z,11.05
2022-10-19T11:03:31.976Z,11.00
2022-10-19T11:06:00.844Z,11.13
2022-10-19T11:08:31.839Z,11.75
2022-10-19T11:11:14.119Z,11.38
2022-10-19T11:13:50.595Z,11.13
2022-10-19T11:16:21.904Z,12.20
2022-10-19T11:22:07.052Z,11.30
2022-10-19T11:25:03.215Z,11.40
2022-10-19T11:27:57.520Z,10.70
2022-10-19T11:30:26.582Z,11.23
2022-10-19T11:32:56.152Z,11.07
2022-10-19T11:35:45.609Z,11.23
2022-10-19T11:38:20.683Z,11.40
2022-10-19T11:41:26.950Z,10.68
2022-10-19T11:44:12.492Z,10.18
2022-10-19T11:46:46.869Z,10.43
2022-10-19T11:49:54.445Z,10.93
2022-10-19T11:52:37.224Z,10.10
2022-10-19T11:55:28.417Z,10.98
2022-10-19T11:58:13.693Z,10.43
2022-10-19T12:00:50.110Z,9.95
2022-10-19T12:03:37.853Z,10.15
2022-10-19T12:06:36.195Z,9.75
2022-10-19T12:09:15.460Z,9.98
2022-10-19T12:12:06.156Z,10.02
2022-10-19T12:14:38.898Z,10.07
2022-10-19T12:17:15.029Z,9.57
2022-10-19T12:19:51.001Z,9.27
2022-10-19T12:22:23.974Z,10.38
2022-10-19T12:24:53.363Z,9.98
2022-10-19T12:27:32.093Z,9.52
2022-10-19T12:30:08.242Z,9.98
2022-10-19T12:32:53.470Z,9.00
2022-10-19T12:35:43.580Z,8.40
2022-10-19T12:38:44.025Z,9.52
2022-10-19T12:41:29.511Z,9.90
2022-10-19T12:44:33.742Z,9.15
2022-10-19T12:47:11.019Z,9.60
2022-10-19T12:49:45.505Z,9.85
2022-10-19T12:52:14.111Z,10.38
2022-10-19T12:54:44.238Z,10.48
2022-10-19T12:57:30.999Z,9.63
2022-10-19T13:00:23.499Z,10.77
2022-10-19T13:03:07.937Z,9.73
2022-10-19T13:05:36.730Z,9.30
2022-10-19T13:08:08.073Z,9.95
2022-10-19T13:10:37.942Z,9.63
2022-10-19T13:13:05.118Z,9.52
2022-10-19T13:15:38.331Z,9.68
2022-10-19T13:18:17.280Z,9.63
2022-10-19T13:20:54.050Z,9.70
2022-10-19T13:23:27.208Z,9.93
2022-10-19T13:26:34.687Z,9.90
2022-10-19T13:29:01.686Z,9.35
2022-10-19T13:31:31.410Z,9.75
2022-10-19T13:33:58.815Z,9.85
2022-10-19T13:36:26.551Z,8.93
2022-10-19T13:38:59.615Z,9.27
2022-10-19T13:41:28.473Z,9.80
2022-10-19T13:44:15.333Z,10.07
2022-10-19T13:47:07.215Z,9.10
2022-10-19T13:49:55.777Z,9.48
2022-10-19T13:52:40.738Z,9.88
2022-10-19T13:55:47.317Z,9.38
2022-10-19T13:58:27.126Z,9.70
2022-10-19T14:01:03.304Z,8.70
2022-10-19T14:03:48.445Z,8.68
2022-10-19T14:06:47.478Z,10.35
2022-10-19T14:09:52.231Z,8.55
2022-10-19T14:12:28.141Z,9.88
2022-10-19T14:14:55.285Z,9.77
2022-10-19T14:17:30.284Z,10.40
2022-10-19T14:19:59.341Z,10.23
2022-10-19T14:22:36.618Z,10.45
2022-10-19T14:25:07.520Z,9.55
2022-10-19T14:27:35.750Z,9.52
2022-10-19T14:30:04.324Z,9.25
2022-10-19T14:32:35.116Z,10.18
2022-10-19T14:35:17.559Z,9.75
2022-10-19T14:37:45.116Z,9.48
2022-10-19T14:40:28.916Z,10.65
2022-10-19T14:42:57.712Z,10.50
2022-10-19T14:45:24.823Z,10.32
2022-10-19T14:48:01.168Z,9.90
2022-10-19T14:50:42.207Z,10.77
2022-10-19T14:53:37.379Z,9.63
2022-10-19T14:56:28.138Z,10.32
2022-10-19T14:59:12.474Z,10.75
2022-10-19T15:01:41.045Z,10.43
2022-10-19T15:04:08.542Z,9.88
2022-10-19T15:06:36.243Z,9.93
2022-10-19T15:09:12.085Z,9.68
2022-10-19T15:11:49.896Z,9.90
2022-10-19T15:14:22.090Z,9.88
2022-10-19T15:17:00.574Z,10.02
2022-10-19T15:19:41.266Z,9.70
2022-10-19T15:22:21.725Z,9.50
2022-10-19T15:24:59.551Z,9.55
2022-10-19T15:27:50.092Z,9.13
2022-10-19T15:30:23.126Z,9.80
2022-10-19T15:32:52.731Z,10.18
2022-10-19T15:35:37.286Z,9.02
2022-10-19T15:38:10.179Z,10.35
2022-10-19T15:40:40.062Z,8.88
2022-10-19T15:43:35.465Z,9.55
2022-10-19T15:46:29.033Z,9.63
2022-10-19T15:48:58.135Z,9.48
2022-10-19T15:51:29.622Z,10.43
2022-10-19T15:54:01.019Z,9.98
2022-10-19T15:56:30.347Z,10.43
2022-10-19T15:58:59.226Z,10.15
2022-10-19T16:01:32.409Z,10.15
2022-10-19T16:04:00.174Z,10.27
2022-10-19T16:06:30.717Z,10.15
2022-10-19T16:08:58.838Z,10.63
2022-10-19T16:11:26.218Z,11.15
2022-10-19T16:13:55.671Z,10.05
2022-10-19T16:16:29.753Z,10.60
2022-10-19T16:18:57.144Z,10.30
2022-10-19T16:21:28.509Z,11.48
2022-10-19T16:23:56.241Z,10.55
2022-10-19T16:26:27.180Z,10.30
2022-10-19T16:28:55.572Z,10.38
2022-10-19T16:31:23.881Z,10.07
2022-10-19T16:33:51.179Z,11.07
2022-10-19T16:36:20.451Z,10.48
2022-10-19T16:38:48.244Z,10.65
2022-10-19T16:41:16.049Z,10.65
2022-10-19T16:43:43.273Z,10.38
2022-10-19T16:46:10.469Z,10.77
2022-10-19T16:48:38.363Z,10.63
2022-10-19T16:51:10.368Z,10.65
2022-10-19T16:53:38.526Z,11.30
2022-10-19T16:56:07.827Z,10.77
2022-10-19T16:58:37.130Z,11.40
2022-10-19T17:01:09.975Z,11.10
2022-10-19T17:03:37.383Z,10.88
2022-10-19T17:06:06.321Z,11.10
2022-10-19T17:08:36.916Z,11.10
2022-10-19T17:11:27.345Z,11.45
2022-10-19T17:13:57.846Z,11.68
2022-10-19T17:16:27.253Z,10.98
2022-10-19T17:18:59.157Z,11.13
2022-10-19T17:21:28.981Z,11.00
2022-10-19T17:23:57.936Z,11.73
2022-10-19T17:26:30.831Z,11.68
2022-10-19T17:28:58.671Z,12.70
2022-10-19T17:31:26.777Z,11.73
2022-10-19T17:33:54.735Z,12.55
2022-10-19T17:36:28.338Z,12.70
2022-10-19T17:38:57.781Z,12.90
2022-10-19T17:41:25.650Z,12.63
2022-10-19T17:43:53.244Z,12.15
2022-10-19T17:46:23.234Z,13.30
2022-10-19T17:48:50.417Z,14.20
2022-10-19T17:51:23.819Z,13.68
2022-10-19T17:53:52.065Z,13.45
2022-10-19T17:56:20.697Z,13.40
2022-10-19T17:58:48.622Z,13.82
2022-10-19T18:01:20.190Z,13.13
2022-10-19T18:03:47.769Z,15.43
2022-10-19T18:06:24.188Z,15.25
2022-10-19T18:08:56.496Z,15.02
2022-10-19T18:11:26.661Z,15.35
2022-10-19T18:13:57.602Z,15.35
2022-10-19T18:16:36.585Z,16.25
2022-10-19T18:19:04.712Z,16.13
2022-10-19T18:21:35.041Z,16.15
2022-10-19T18:24:03.952Z,15.45
2022-10-19T18:26:32.716Z,16.42
2022-10-19T18:29:01.996Z,16.58
2022-10-19T18:31:31.597Z,16.90
2022-10-19T18:34:04.398Z,17.02
2022-10-19T18:36:32.754Z,17.70
2022-10-19T18:39:01.777Z,17.48
2022-10-19T18:41:30.001Z,18.20
2022-10-19T18:44:03.264Z,17.92
2022-10-19T18:46:30.838Z,18.17
2022-10-19T18:48:57.924Z,18.35
2022-10-19T18:51:24.965Z,17.25
2022-10-19T18:53:52.078Z,17.73
2022-10-19T18:56:21.667Z,18.98
2022-10-19T18:58:49.312Z,17.80
2022-10-19T19:01:19.289Z,17.85
2022-10-19T19:03:49.740Z,18.17
2022-10-19T19:06:29.672Z,17.33
2022-10-19T19:08:58.036Z,17.48
2022-10-19T19:11:30.599Z,17.58
2022-10-19T19:14:03.035Z,18.33
2022-10-19T19:16:33.941Z,17.85
2022-10-19T19:19:00.976Z,17.80
2022-10-19T19:21:30.205Z,17.67
2022-10-19T19:24:00.421Z,18.15
2022-10-19T19:26:31.332Z,17.75
2022-10-19T19:28:58.560Z,17.48
2022-10-19T19:31:26.568Z,17.05
2022-10-19T19:33:53.705Z,17.85
2022-10-19T19:36:20.919Z,18.58
2022-10-19T19:38:50.636Z,18.33
2022-10-19T19:41:18.254Z,18.98
2022-10-19T19:43:45.236Z,19.52
2022-10-19T19:46:17.468Z,19.65
2022-10-19T19:48:47.176Z,19.65
2022-10-19T19:51:20.514Z,18.90
2022-10-19T19:53:48.428Z,18.38
2022-10-19T19:56:16.778Z,19.55
2022-10-19T19:58:45.018Z,17.52
2022-10-19T20:01:14.316Z,17.60
2022-10-19T20:03:41.782Z,18.80
2022-10-19T20:06:10.898Z,19.10
2022-10-19T20:08:38.689Z,18.08
2022-10-19T20:11:14.215Z,17.42
2022-10-19T20:13:41.286Z,17.63
2022-10-19T20:16:15.731Z,18.25
2022-10-19T20:18:46.366Z,17.02
2022-10-19T20:21:13.812Z,17.67
2022-10-19T20:23:43.618Z,16.77
2022-10-19T20:26:18.933Z,17.17
2022-10-19T20:28:46.252Z,17.15
2022-10-19T20:31:13.872Z,16.83
2022-10-19T20:33:42.885Z,16.80
2022-10-19T20:36:12.966Z,17.25
2022-10-19T20:38:40.849Z,18.08
2022-10-19T20:41:09.895Z,16.35
2022-10-19T20:43:37.990Z,16.70
2022-10-19T20:46:07.333Z,17.00
2022-10-19T20:48:35.197Z,17.20
2022-10-19T20:51:20.167Z,16.42
2022-10-19T20:53:49.723Z,16.75
2022-10-19T20:56:21.424Z,16.95
2022-10-19T20:58:50.729Z,16.33
2022-10-19T21:01:19.701Z,17.33
2022-10-19T21:03:49.037Z,17.20
2022-10-19T21:06:16.358Z,16.42
2022-10-19T21:08:43.441Z,16.98
2022-10-19T21:11:19.241Z,17.23
2022-10-19T21:13:46.923Z,16.60
2022-10-19T21:16:19.028Z,15.95
2022-10-19T21:18:47.978Z,17.08
2022-10-19T21:21:28.540Z,16.90
2022-10-19T21:24:01.688Z,17.17
2022-10-19T21:26:28.936Z,17.60
2022-10-19T21:28:56.089Z,19.42
2022-10-19T21:31:25.670Z,16.58
2022-10-19T21:33:53.605Z,18.00
2022-10-19T21:36:22.162Z,17.88
2022-10-19T21:38:49.921Z,18.20
2022-10-19T21:41:25.348Z,18.25
2022-10-19T21:43:54.095Z,17.52
2022-10-19T21:46:22.839Z,18.27
2022-10-19T21:48:50.673Z,18.80
2022-10-19T21:51:36.408Z,17.95
2022-10-19T21:54:04.989Z,17.38
2022-10-19T21:56:32.766Z,16.70
2022-10-19T21:58:59.808Z,17.52
2022-10-19T22:01:28.790Z,16.75
2022-10-19T22:04:02.065Z,17.52
2022-10-19T22:06:31.088Z,17.13
2022-10-19T22:08:58.886Z,17.17
2022-10-19T22:11:26.957Z,16.92
2022-10-19T22:14:00.167Z,15.55
2022-10-19T22:16:29.139Z,15.50
2022-10-19T22:18:56.436Z,15.48
2022-10-19T22:21:29.398Z,15.20
2022-10-19T22:24:01.998Z,15.10
2022-10-19T22:26:32.144Z,15.15
2022-10-19T22:29:00.517Z,14.55
2022-10-19T22:31:29.060Z,16.27
2022-10-19T22:33:56.360Z,14.80
2022-10-19T22:36:23.366Z,15.10
2022-10-19T22:38:50.650Z,15.02
2022-10-19T22:42:13.596Z,15.98
2022-10-19T22:45:08.566Z,14.10
2022-10-19T22:47:35.493Z,14.55
2022-10-19T22:50:02.736Z,14.18
2022-10-19T22:52:29.728Z,13.52
2022-10-19T22:54:56.921Z,13.57
2022-10-19T22:57:24.412Z,15.43
2022-10-19T22:59:51.499Z,13.52
2022-10-19T23:02:18.541Z,14.10
2022-10-19T23:04:45.747Z,13.70
2022-10-19T23:07:13.091Z,14.27
2022-10-19T23:09:40.436Z,13.77
2022-10-19T23:12:07.581Z,14.10
2022-10-19T23:14:35.583Z,12.98
2022-10-19T23:17:02.675Z,14.32
2022-10-19T23:19:29.783Z,13.20
2022-10-19T23:21:56.856Z,13.20
2022-10-19T23:24:24.051Z,13.32
2022-10-19T23:26:53.164Z,12.60
2022-10-19T23:29:20.381Z,12.98
2022-10-19T23:31:48.431Z,12.88
2022-10-19T23:34:15.541Z,12.27
2022-10-19T23:36:42.592Z,11.75
2022-10-19T23:39:09.780Z,12.27
2022-10-19T23:41:37.062Z,12.35
2022-10-19T23:44:05.032Z,12.65
2022-10-19T23:46:32.127Z,12.10
2022-10-19T23:48:58.955Z,12.23
2022-10-19T23:51:25.890Z,13.00
2022-10-19T23:53:53.422Z,12.80
2022-10-19T23:56:22.961Z,12.02
2022-10-19T23:58:50.960Z,12.60
